• Join FlightAware (Why Join?)
  • Login
  • US Flag 
02:45PM EDT


 

Airport Tracker/Info


-or-


 

Live Flight TrackerFlight Track Log ✈ SWA1362 ✈ 20-Apr-2013 ✈ KPHX - KBUF

Flight Track Log - Related Links

Times and Time Zones

All times are in EDT time to prevent confusion due to time zone crossing. See the SWA1362 flight status page for this flight to view local times or setup timezone preferences in your user account.

Time Position Orientation Groundspeed Altitude Reporting Facility
EDT Latitude Longitude Course Direction KTS MPH feet Rate Location/Type
05:41PM 33.4333 -112.1000 269° West 227 261 3,900  Level Phoenix TRACON
05:42PM 33.4358 -112.1519 273° West 238 274 5,300 2,880 Climbing Albuquerque Center
05:43PM 33.5008 -112.1892 334° Northwest 276 318 9,200 2,760 Climbing Albuquerque Center
05:44PM 33.5511 -112.1253 47° Northeast 309 356 11,000 1,980 Climbing Albuquerque Center
05:45PM 33.5697 -112.0089 79° East 357 411 13,300 2,100 Climbing Albuquerque Center
05:46PM 33.5914 -111.8847 78° East 381 438 15,400 2,160 Climbing Albuquerque Center
05:47PM 33.6108 -111.7544 80° East 400 460 17,800 2,040 Climbing Albuquerque Center
05:48PM 33.6333 -111.6208 79° East 412 474 19,700 1,980 Climbing Albuquerque Center
05:49PM 33.6589 -111.4514 80° East 434 499 21,900 1,800 Climbing Albuquerque Center
05:50PM 33.6828 -111.3047 79° East 450 518 23,500 1,560 Climbing Albuquerque Center
05:51PM 33.7253 -111.1619 70° East 457 526 25,100 1,320 Climbing Albuquerque Center
05:52PM 33.7769 -111.0197 66° East 465 535 26,300 1,200 Climbing Albuquerque Center
05:53PM 33.8292 -110.8708 67° East 480 552 27,600 1,200 Climbing Albuquerque Center
05:54PM 33.8819 -110.7225 67° East 484 557 28,800 1,140 Climbing Albuquerque Center
05:55PM 33.9464 -110.5375 67° East 496 571 30,000 1,200 Climbing Albuquerque Center
05:56PM 34.0086 -110.3786 65° Northeast 505 581 31,300 1,260 Climbing Albuquerque Center
05:57PM 34.0764 -110.2344 60° Northeast 502 578 32,700 1,200 Climbing Albuquerque Center
05:58PM 34.1408 -110.0886 62° Northeast 498 573 33,800 900 Climbing Albuquerque Center
05:59PM 34.2050 -109.9492 61° Northeast 497 572 34,600 540 Climbing Albuquerque Center
06:00PM 34.2783 -109.7839 62° Northeast 499 574 35,000 180 Climbing Albuquerque Center
06:01PM 34.3417 -109.6442 61° Northeast 498 573 35,000  Level Albuquerque Center
06:02PM 34.4139 -109.4789 62° Northeast 498 573 35,000  Level Albuquerque Center
06:03PM 34.4761 -109.3400 61° Northeast 494 568 35,000  Level Albuquerque Center
06:04PM 34.5497 -109.1756 61° Northeast 495 570 35,000  Level Albuquerque Center
06:05PM 34.6125 -109.0322 62° Northeast 499 574 35,000  Level Albuquerque Center
06:06PM 34.6758 -108.8914 61° Northeast 498 573 35,000  Level Albuquerque Center
06:07PM 34.7669 -108.7508 52° Northeast 477 549 35,000  Level Albuquerque Center
06:08PM 34.8436 -108.6264 53° Northeast 478 550 35,000  Level Albuquerque Center
06:09PM 34.9331 -108.4803 53° Northeast 481 554 35,000  Level Albuquerque Center
06:10PM 35.0111 -108.3600 52° Northeast 477 549 35,000  Level Albuquerque Center
06:11PM 35.1022 -108.2211 51° Northeast 472 543 35,000  Level Albuquerque Center
06:13PM 35.1828 -108.1039 50° Northeast 472 543 35,000  Level Albuquerque Center
06:14PM 35.2458 -107.9667 61° Northeast 488 562 35,000  Level Albuquerque Center
06:15PM 35.3142 -107.8019 63° Northeast 486 559 35,000  Level Albuquerque Center
06:16PM 35.3703 -107.6625 64° Northeast 481 554 35,000  Level Albuquerque Center
06:17PM 35.4364 -107.5000 63° Northeast 479 551 35,000  Level Albuquerque Center
06:18PM 35.4944 -107.3581 63° Northeast 482 555 35,000  Level Albuquerque Center
06:19PM 35.5622 -107.1936 63° Northeast 484 557 35,000  Level Albuquerque Center
06:20PM 35.6222 -107.0464 63° Northeast 490 564 35,000  Level Albuquerque Center
06:21PM 35.6794 -106.9061 63° Northeast 491 565 35,000  Level Albuquerque Center
06:22PM 35.7475 -106.7367 64° Northeast 495 570 35,000  Level Albuquerque Center
06:23PM 35.8058 -106.5925 63° Northeast 493 567 35,000  Level Albuquerque Center
06:24PM 35.8731 -106.4239 64° Northeast 491 565 35,000  Level Albuquerque Center
06:25PM 35.9267 -106.2886 64° Northeast 490 564 35,000  Level Albuquerque Center
06:26PM 35.9861 -106.1358 64° Northeast 492 566 35,000  Level Albuquerque Center
06:27PM 36.0447 -105.9833 65° Northeast 492 566 35,000  Level Albuquerque Center
06:28PM 36.1161 -105.8019 64° Northeast 489 563 35,000  Level Albuquerque Center
06:29PM 36.1747 -105.6500 64° Northeast 488 562 35,000  Level Albuquerque Center
06:30PM 36.2367 -105.4906 64° Northeast 492 566 35,000  Level Albuquerque Center
06:31PM 36.2956 -105.3375 64° Northeast 490 564 35,000  Level Albuquerque Center
06:32PM 36.3533 -105.1831 65° Northeast 488 562 35,000  Level Albuquerque Center
06:33PM 36.4119 -105.0292 65° Northeast 489 563 35,000  Level Albuquerque Center
06:34PM 36.4697 -104.8767 65° Northeast 485 558 35,000  Level Albuquerque Center
06:35PM 36.5286 -104.7225 65° Northeast 488 562 35,000  Level Albuquerque Center
06:36PM 36.5853 -104.5683 65° Northeast 486 559 35,000  Level Albuquerque Center
06:37PM 36.6442 -104.4133 65° Northeast 488 562 35,000  Level Albuquerque Center
06:38PM 36.7064 -104.2475 65° Northeast 487 560 35,000  Level Albuquerque Center
06:39PM 36.7611 -104.1025 65° Northeast 485 558 35,000  Level Albuquerque Center
06:40PM 36.8236 -103.9325 65° Northeast 486 559 35,000  Level Albuquerque Center
06:41PM 36.8764 -103.7892 65° Northeast 479 551 35,000  Level Albuquerque Center
06:42PM 36.9386 -103.6186 65° Northeast 483 556 35,000  Level Albuquerque Center
06:43PM 36.9914 -103.4728 66° East 485 558 35,000  Level Albuquerque Center
06:44PM 37.0447 -103.3261 65° Northeast 486 559 35,000  Level Albuquerque Center
06:45PM 37.1069 -103.1525 66° East 489 563 35,000  Level Albuquerque Center
06:46PM 37.1592 -103.0044 66° East 488 562 35,000  Level Albuquerque Center
06:47PM 37.2225 -102.8328 65° Northeast 488 562 35,000  Level Albuquerque Center
06:48PM 37.2744 -102.6864 66° East 482 555 35,000  Level Albuquerque Center
06:49PM 37.3258 -102.5400 66° East 481 554 35,000  Level Albuquerque Center
06:50PM 37.3861 -102.3675 66° East 482 555 35,000  Level Albuquerque Center
06:51PM 37.4397 -102.2100 67° East 482 555 35,000  Level Albuquerque Center
06:52PM 37.4911 -102.0603 67° East 485 558 35,000  Level Albuquerque Center
06:54PM 37.5667 -101.8353 67° East 485 558 35,000  Level Kansas City Center
06:55PM 37.6258 -101.6614 67° East 484 557 35,000  Level Kansas City Center
06:56PM 37.6772 -101.5119 66° East 484 557 35,000  Level Kansas City Center
06:57PM 37.7278 -101.3619 67° East 485 558 35,000  Level Kansas City Center
06:58PM 37.7864 -101.1864 67° East 483 556 35,000  Level Kansas City Center
06:59PM 37.8367 -101.0356 67° East 482 555 35,000  Level Kansas City Center
07:00PM 37.8869 -100.8842 67° East 481 554 35,000 360 Level Kansas City Center
07:01PM 37.9458 -100.7058 67° East 485 558 35,800 720 Climbing Kansas City Center
07:02PM 37.9964 -100.5522 67° East 488 562 36,500 540 Climbing Kansas City Center
07:03PM 38.0536 -100.3753 68° East 486 559 37,000 240 Climbing Kansas City Center
07:04PM 38.1028 -100.2236 68° East 485 558 37,000  Level Kansas City Center
07:05PM 38.1514 -100.0711 68° East 485 558 37,000  Level Kansas City Center
07:06PM 38.2072 -99.8939 68° East 484 557 37,000  Level Kansas City Center
07:07PM 38.2567 -99.7442 67° East 481 554 37,000  Level Kansas City Center
07:08PM 38.3131 -99.5664 68° East 484 557 37,000  Level Kansas City Center
07:09PM 38.3561 -99.4261 69° East 485 558 37,000  Level Kansas City Center
07:10PM 38.4081 -99.2653 68° East 488 562 37,000  Level Kansas City Center
07:11PM 38.4678 -99.0728 68° East 488 562 37,000  Level Kansas City Center
07:12PM 38.5192 -98.9094 68° East 491 565 37,000  Level Kansas City Center
07:13PM 38.5719 -98.7431 68° East 501 577 37,000  Level Kansas City Center
07:14PM 38.6211 -98.5789 69° East 495 570 37,000  Level Kansas City Center
07:15PM 38.6722 -98.4142 68° East 495 570 37,000  Level Kansas City Center
07:16PM 38.7217 -98.2500 69° East 494 568 37,000  Level Kansas City Center
07:18PM 38.7717 -98.0850 69° East 494 568 37,000  Level Kansas City Center
07:19PM 38.8208 -97.9194 69° East 495 570 37,000  Level Kansas City Center
07:20PM 38.8756 -97.7411 68° East 490 564 37,000  Level Kansas City Center
07:21PM 38.9214 -97.5847 69° East 491 565 37,000  Level Kansas City Center
07:22PM 38.9775 -97.3936 69° East 492 566 37,000  Level Kansas City Center
07:23PM 39.0214 -97.2428 69° East 493 567 37,000  Level Kansas City Center
07:24PM 39.0756 -97.0608 69° East 489 563 37,000  Level Kansas City Center
07:25PM 39.1200 -96.9025 70° East 491 565 37,000  Level Kansas City Center
07:26PM 39.1731 -96.7192 69° East 490 564 37,000  Level Kansas City Center
07:27PM 39.2181 -96.5597 70° East 492 566 37,000  Level Kansas City Center
07:28PM 39.2614 -96.4022 70° East 494 568 37,000  Level Kansas City Center
07:29PM 39.3103 -96.2367 69° East 493 567 37,000  Level Kansas City Center
07:30PM 39.3592 -96.0528 71° East 494 568 37,000  Level Kansas City Center
07:31PM 39.4108 -95.8658 70° East 494 568 37,000  Level Kansas City Center
07:32PM 39.4547 -95.7053 70° East 493 567 37,000  Level Kansas City Center
07:33PM 39.4983 -95.5444 71° East 492 566 37,000  Level Kansas City Center
07:34PM 39.5500 -95.3569 70° East 491 565 37,000  Level Kansas City Center
07:35PM 39.5933 -95.1956 71° East 490 564 37,000  Level Kansas City Center
07:36PM 39.6369 -95.0336 71° East 494 568 37,000  Level Kansas City Center
07:37PM 39.6869 -94.8442 71° East 494 568 37,000  Level Kansas City Center
07:38PM 39.7303 -94.6836 71° East 491 565 37,000  Level Kansas City Center
07:39PM 39.7728 -94.5211 71° East 494 568 37,000  Level Kansas City Center
07:40PM 39.8222 -94.3331 71° East 492 566 37,000  Level Kansas City Center
07:41PM 39.8636 -94.1697 72° East 495 570 37,000  Level Kansas City Center
07:42PM 39.9042 -94.0044 72° East 504 580 37,000  Level Kansas City Center
07:43PM 39.9550 -93.8017 72° East 496 571 37,000  Level Kansas City Center
07:44PM 39.9975 -93.6333 72° East 494 568 37,000  Level Kansas City Center
07:45PM 40.0394 -93.4658 72° East 490 564 37,000  Level Kansas City Center
07:46PM 40.0814 -93.2981 72° East 491 565 37,000  Level Kansas City Center
07:47PM 40.1250 -93.1303 71° East 492 566 37,000  Level Kansas City Center
07:48PM 40.1708 -92.9489 72° East 490 564 37,000  Level Kansas City Center
07:49PM 40.2100 -92.7869 72° East 488 562 37,000  Level Kansas City Center
07:50PM 40.2553 -92.5989 72° East 486 559 37,000  Level Kansas City Center
07:51PM 40.2969 -92.4400 71° East 484 557 37,000  Level Kansas City Center
07:52PM 40.3347 -92.2731 73° East 490 564 37,000  Level Kansas City Center
07:53PM 40.3747 -92.1058 73° East 490 564 37,000  Level Kansas City Center
07:54PM 40.4211 -91.9058 73° East 484 557 37,000  Level Kansas City Center
07:55PM 40.4603 -91.7381 73° East 483 556 37,000  Level Kansas City Center
07:56PM 40.4925 -91.6042 72° East 486 559 37,000  Level Chicago Center
07:57PM 40.5406 -91.3983 73° East 492 566 37,000  Level Chicago Center
07:58PM 40.5731 -91.2539 73° East 493 567 37,000  Level Chicago Center
07:59PM 40.6197 -91.0461 73° East 493 567 37,000  Level Chicago Center
08:00PM 40.6583 -90.8719 74° East 494 568 37,000  Level Chicago Center
08:01PM 40.6975 -90.6978 73° East 495 570 37,000  Level Chicago Center
08:02PM 40.7353 -90.5250 74° East 491 565 37,000  Level Chicago Center
08:03PM 40.7742 -90.3522 73° East 490 564 37,000  Level Chicago Center
08:05PM 40.8164 -90.1608 74° East 487 560 37,000  Level Chicago Center
08:06PM 40.8519 -89.9894 75° East 485 558 37,000  Level Chicago Center
08:07PM 40.8886 -89.8217 74° East 481 554 37,000  Level Chicago Center
08:08PM 40.9233 -89.6531 75° East 480 552 37,000  Level Chicago Center
08:09PM 40.9589 -89.4878 74° East 484 557 37,000  Level Chicago Center
08:10PM 40.9956 -89.3136 74° East 483 556 37,000  Level Chicago Center
08:11PM 41.0306 -89.1442 75° East 479 551 37,000  Level Chicago Center
08:12PM 41.0644 -88.9744 75° East 478 550 37,000  Level Chicago Center
08:13PM 41.1064 -88.7697 75° East 482 555 37,000  Level Chicago Center
08:14PM 41.1414 -88.5969 75° East 488 562 37,000  Level Chicago Center
08:15PM 41.1764 -88.4258 75° East 485 558 37,000  Level Chicago Center
08:16PM 41.2108 -88.2556 75° East 483 556 37,000  Level Chicago Center
08:17PM 41.2458 -88.0850 75° East 488 562 37,000  Level Chicago Center
08:18PM 41.2844 -87.8825 76° East 488 562 37,000  Level Chicago Center
08:19PM 41.3178 -87.7072 76° East 498 573 37,000  Level Chicago Center
08:20PM 41.3517 -87.5306 76° East 501 577 37,000  Level Chicago Center
08:21PM 41.3861 -87.3539 75° East 499 574 37,000  Level Chicago Center
08:22PM 41.4197 -87.1767 76° East 497 572 37,000  Level Chicago Center
08:23PM 41.4525 -86.9964 76° East 502 578 37,000  Level Chicago Center
08:24PM 41.4858 -86.8164 76° East 504 580 37,000  Level Chicago Center
08:25PM 41.5169 -86.6367 77° East 500 575 37,000  Level Chicago Center
08:26PM 41.5494 -86.4572 76° East 501 577 37,000  Level Chicago Center
08:27PM 41.5883 -86.2433 76° East 496 571 37,000  Level Chicago Center
08:28PM 41.6208 -86.0642 76° East 495 570 37,000  Level Chicago Center
08:29PM 41.6528 -85.8828 77° East 501 577 37,000  Level Chicago Center
08:30PM 41.6847 -85.6967 77° East 509 586 37,000  Level Chicago Center
08:31PM 41.7183 -85.5061 77° East 515 593 37,000  Level Chicago Center
08:32PM 41.7494 -85.3122 78° East 520 598 37,000  Level Chicago Center
08:33PM 41.7825 -85.1217 77° East 521 600 37,000  Level Chicago Center
08:34PM 41.8147 -84.9356 77° East 523 602 37,000  Level Cleveland Center
08:35PM 41.8467 -84.7481 77° East 523 602 37,000  Level Cleveland Center
08:36PM 41.8786 -84.5575 77° East 523 602 37,000  Level Cleveland Center
08:37PM 41.9058 -84.3694 79° East 523 602 37,000  Level Cleveland Center
08:38PM 41.9297 -84.2061 79° East 518 596 37,000  Level Cleveland Center
08:39PM 41.9831 -84.0303 68° East 508 585 37,000  Level Cleveland Center
08:40PM 42.0425 -83.8575 65° Northeast 500 575 37,000  Level Cleveland Center
08:41PM 42.1014 -83.6869 65° Northeast 500 575 37,000  Level Cleveland Center
08:42PM 42.1667 -83.4994 65° Northeast 500 575 37,000  Level Cleveland Center
08:43PM 42.2144 -83.3392 68° East 505 581 37,000 -180 Level Cleveland Center
08:44PM 42.2439 -83.1469 78° East 505 581 36,700 -660 Descending Cleveland Center
08:45PM 42.2769 -82.9658 76° East 505 581 35,700 -960 Descending Cleveland Center
08:46PM 42.3081 -82.7758 77° East 505 581 34,800 -960 Descending Cleveland Center
08:47PM 42.3383 -82.5917 77° East 505 581 33,800 -900 Descending Cleveland Center
08:48PM 42.3686 -82.4100 77° East 505 581 33,000 -420 Descending Cleveland Center
08:49PM 42.4025 -82.2253 76° East 505 581 33,000  Level Cleveland Center
08:50PM 42.4386 -82.0208 76° East 505 581 33,000  Level Cleveland Center
08:51PM 42.4681 -81.8358 78° East 505 581 33,000  Level Cleveland Center
08:52PM 42.4989 -81.6533 77° East 505 581 33,000 -780 Level Cleveland Center
08:53PM 42.5275 -81.4706 78° East 505 581 31,500 -1,980 Descending Cleveland Center
08:54PM 42.5581 -81.2850 77° East 505 581 29,100 -2,340 Descending Cleveland Center
08:55PM 42.5883 -81.1050 77° East 500 575 26,900 -2,040 Descending Cleveland Center
08:56PM 42.6139 -80.9500 77° East 489 563 25,100 -1,500 Descending Cleveland Center
08:57PM 42.6392 -80.7750 79° East 469 540 24,000 -600 Descending Cleveland Center
08:58PM 42.6667 -80.6086 77° East 463 533 24,000 -60 Level Cleveland Center
08:59PM 42.6914 -80.4364 79° East 463 533 23,900 -1,260 Descending Cleveland Center
09:00PM 42.6975 -80.2697 87° East 448 516 21,500 -2,520 Descending Cleveland Center
09:01PM 42.6947 -80.0861 91° East 443 510 18,900 -2,280 Descending Cleveland Center
09:02PM 42.6958 -79.9194 89° East 437 503 17,000 -2,100 Descending Cleveland Center
09:03PM 42.6950 -79.7583 90° East 432 497 14,700 -2,100 Descending Cleveland Center
09:04PM 42.6936 -79.6114 91° East 419 482 12,800 -1,800 Descending Cleveland Center
09:05PM 42.6944 -79.4703 89° East 392 451 11,200 -1,320 Descending Cleveland Center
09:06PM 42.7372 -79.3592 62° Northeast 347 399 10,200 -900 Descending Cleveland Center
09:07PM 42.7717 -79.2681 63° Northeast 310 357 9,400 -1,020 Descending Cleveland Center
09:08PM 42.8058 -79.1739 64° Northeast 289 333 8,200 -1,500 Descending Cleveland Center
09:09PM 42.8483 -79.0711 61° Northeast 275 316 6,400 -1,560 Descending Cleveland Center
09:10PM 42.8847 -78.9767 62° Northeast 275 316 5,100 -1,200 Descending Cleveland Center
09:11PM 42.9400 -78.9044 44° Northeast 270 311 4,000 -660 Descending Cleveland Center
09:12PM 42.9667 -78.8500 56° Northeast 232 267 4,000 -240 Level Buffalo TRACON
09:13PM 43.0167 -78.8000 36° Northeast 215 247 3,600 -600 Descending Buffalo TRACON
09:14PM 43.0333 -78.7333 71° East 210 242 2,900 -660 Descending Buffalo TRACON
09:15PM 43.0167 -78.6667 109° East 178 205 2,300 -600 Descending Buffalo TRACON
09:16PM 42.9833 -78.6833 200° South 122 140 1,800 -720 Descending Buffalo TRACON
09:17PM 42.9500 -78.7167 216° Southwest 133 153 900 -900 Descending Buffalo TRACON